Time;durP1;ratioP1;P1;durP2;ratioP2;P2;SDS_P1;SDS_P2;PMS_P1;PMS_P2;Temp;Humidity;BMP_temperature;BMP_pressure;BME280_temperature;BME280_humidity;BME280_pressure;Samples;Min_cycle;Max_cycle;Signal;HPM_P1;HPM_P2
2023/08/03 00:00:40;;;;;;;4.22;2.38;;;17.50;99.90;;;;;;4959579;28;20331;-79
2023/08/03 00:03:06;;;;;;;2.85;2.22;;;17.50;99.90;;;;;;4977198;28;20667;-79
2023/08/03 00:05:31;;;;;;;3.13;2.30;;;17.60;99.90;;;;;;4977120;28;20190;-80
2023/08/03 00:07:57;;;;;;;2.83;2.10;;;17.70;99.90;;;;;;4970703;28;20285;-80
2023/08/03 00:10:23;;;;;;;4.65;2.63;;;17.70;99.90;;;;;;4959412;28;20264;-80
2023/08/03 00:12:50;;;;;;;6.28;2.53;;;17.60;99.90;;;;;;4969280;28;20182;-79
2023/08/03 00:15:16;;;;;;;3.30;1.98;;;17.70;99.90;;;;;;4975831;28;20214;-79
2023/08/03 00:17:43;;;;;;;3.50;2.15;;;17.60;99.90;;;;;;4976667;28;20197;-80
2023/08/03 00:20:10;;;;;;;1.85;1.52;;;17.60;99.90;;;;;;4972220;28;20198;-80
2023/08/03 00:22:36;;;;;;;2.30;2.05;;;17.50;99.90;;;;;;4976604;28;20636;-80
2023/08/03 00:25:03;;;;;;;3.13;2.40;;;17.40;99.90;;;;;;4976907;28;20245;-80
2023/08/03 00:27:29;;;;;;;3.78;2.15;;;17.60;99.90;;;;;;4976493;28;20193;-80
2023/08/03 00:29:55;;;;;;;1.85;1.73;;;17.70;99.90;;;;;;4976910;28;20230;-80
2023/08/03 00:32:21;;;;;;;3.15;2.30;;;17.70;99.90;;;;;;4976475;28;20286;-80
2023/08/03 00:34:47;;;;;;;4.70;2.28;;;17.70;99.90;;;;;;4976602;28;20186;-80
2023/08/03 00:37:13;;;;;;;3.45;2.35;;;17.60;99.90;;;;;;4975286;28;20182;-80
2023/08/03 00:39:39;;;;;;;4.60;2.47;;;17.60;99.90;;;;;;4976284;28;20182;-80
2023/08/03 00:42:05;;;;;;;2.72;2.17;;;17.50;99.90;;;;;;4976549;28;20186;-80
2023/08/03 00:44:31;;;;;;;3.10;2.28;;;17.40;99.90;;;;;;4958774;28;20210;-80
2023/08/03 00:46:57;;;;;;;4.25;2.90;;;17.40;99.90;;;;;;4976456;28;20281;-80
2023/08/03 00:49:27;;;;;;;2.63;2.22;;;17.30;99.90;;;;;;4958708;28;20301;-79
2023/08/03 00:51:57;;;;;;;3.78;2.50;;;17.40;99.90;;;;;;4959428;28;20274;-80
2023/08/03 00:54:23;;;;;;;4.28;1.90;;;17.20;99.90;;;;;;4976563;28;20167;-80
2023/08/03 00:56:49;;;;;;;3.10;2.33;;;17.10;99.90;;;;;;4958578;28;20676;-81
2023/08/03 00:59:14;;;;;;;2.80;2.47;;;17.10;99.90;;;;;;4976239;28;20351;-79
2023/08/03 01:01:41;;;;;;;3.90;2.40;;;17.00;99.90;;;;;;4976200;28;20189;-81
2023/08/03 01:04:07;;;;;;;3.67;2.47;;;17.00;99.90;;;;;;4975863;28;20230;-81
2023/08/03 01:06:33;;;;;;;3.05;2.10;;;17.00;99.90;;;;;;4975561;28;20237;-82
2023/08/03 01:09:00;;;;;;;2.50;2.03;;;17.00;99.90;;;;;;4958749;28;20190;-81
2023/08/03 01:11:27;;;;;;;3.83;2.30;;;17.00;99.90;;;;;;4976054;28;20179;-81
2023/08/03 01:13:54;;;;;;;2.80;2.13;;;17.00;99.90;;;;;;4975649;28;20237;-81
2023/08/03 01:16:20;;;;;;;3.58;2.28;;;17.00;99.90;;;;;;4942941;28;20252;-81
2023/08/03 01:18:45;;;;;;;3.15;2.08;;;17.00;99.90;;;;;;4975611;28;20647;-81
2023/08/03 01:21:13;;;;;;;2.58;2.22;;;17.00;99.90;;;;;;4975574;28;20542;-81
2023/08/03 01:23:39;;;;;;;3.60;2.13;;;17.00;99.90;;;;;;4975648;28;20209;-81
2023/08/03 01:26:05;;;;;;;5.90;2.28;;;17.10;99.90;;;;;;4975453;28;20187;-81
2023/08/03 01:28:30;;;;;;;2.92;2.25;;;17.10;99.90;;;;;;4975710;28;20220;-81
2023/08/03 01:30:56;;;;;;;4.13;2.45;;;17.10;99.90;;;;;;4958031;28;20523;-80
2023/08/03 01:33:22;;;;;;;3.97;1.73;;;17.10;99.90;;;;;;4958257;28;20624;-80
2023/08/03 01:35:49;;;;;;;2.42;2.00;;;17.20;99.90;;;;;;4958041;28;20187;-80
2023/08/03 01:38:15;;;;;;;5.00;2.22;;;17.20;99.90;;;;;;4958340;28;20182;-81
2023/08/03 01:40:44;;;;;;;2.88;2.20;;;17.20;99.90;;;;;;4957964;28;20273;-80
2023/08/03 01:43:09;;;;;;;3.40;2.25;;;17.40;99.90;;;;;;4958266;28;20206;-80
2023/08/03 01:45:36;;;;;;;3.20;1.95;;;17.30;99.90;;;;;;4975100;28;20654;-81
2023/08/03 01:48:02;;;;;;;3.05;1.95;;;17.30;99.90;;;;;;4942160;28;20596;-80
2023/08/03 01:50:28;;;;;;;3.30;2.42;;;17.40;99.90;;;;;;4975426;28;20209;-81
2023/08/03 01:52:54;;;;;;;3.08;2.05;;;17.40;99.90;;;;;;4974679;28;20226;-81
2023/08/03 01:55:19;;;;;;;2.63;1.92;;;17.60;99.90;;;;;;4974911;28;20655;-81
2023/08/03 01:57:45;;;;;;;3.05;1.77;;;17.70;99.90;;;;;;4957589;28;20186;-81
2023/08/03 02:00:11;;;;;;;9.13;2.45;;;17.70;99.90;;;;;;4975438;28;20233;-81
2023/08/03 02:02:37;;;;;;;2.10;1.77;;;17.70;99.90;;;;;;4957434;28;20659;-82
2023/08/03 02:05:03;;;;;;;3.25;2.13;;;17.70;99.90;;;;;;4957771;28;20206;-81
2023/08/03 02:07:46;;;;;;;2.35;1.90;;;17.60;99.90;;;;;;4957971;28;20270;-81
2023/08/03 02:10:14;;;;;;;4.57;2.03;;;17.60;99.90;;;;;;4974945;28;20206;-81
2023/08/03 02:12:40;;;;;;;2.78;2.15;;;17.80;99.90;;;;;;4974643;28;20175;-82
2023/08/03 02:15:06;;;;;;;4.85;2.10;;;17.70;99.90;;;;;;4974254;28;20212;-81
2023/08/03 02:17:33;;;;;;;2.67;1.95;;;17.70;99.90;;;;;;4957653;28;20191;-81
2023/08/03 02:19:59;;;;;;;2.40;2.00;;;17.80;99.90;;;;;;4974243;28;20956;-81
2023/08/03 02:22:24;;;;;;;3.60;2.00;;;17.80;99.90;;;;;;4957461;28;20704;-81
2023/08/03 02:24:50;;;;;;;2.38;1.90;;;17.70;99.90;;;;;;4957183;28;20299;-82
2023/08/03 02:27:16;;;;;;;2.75;2.00;;;17.90;99.90;;;;;;4957568;28;20191;-81
2023/08/03 02:29:41;;;;;;;2.33;1.90;;;18.00;99.90;;;;;;4956956;28;20179;-82
2023/08/03 02:32:07;;;;;;;2.25;1.80;;;18.10;99.90;;;;;;4957699;28;20193;-81
2023/08/03 02:34:33;;;;;;;1.90;1.70;;;18.10;99.90;;;;;;4957487;28;20183;-81
2023/08/03 02:36:58;;;;;;;3.65;2.13;;;18.20;99.90;;;;;;4957060;28;20241;-81
2023/08/03 02:39:24;;;;;;;2.30;1.85;;;18.30;99.90;;;;;;4957242;28;20628;-81
2023/08/03 02:41:50;;;;;;;12.00;2.30;;;18.20;99.90;;;;;;4974217;28;20210;-81
2023/08/03 02:44:15;;;;;;;2.53;1.90;;;18.20;99.90;;;;;;4956967;28;20252;-81
2023/08/03 02:46:41;;;;;;;2.60;1.83;;;18.10;99.90;;;;;;4957258;28;20237;-81
2023/08/03 02:49:06;;;;;;;3.47;2.00;;;18.10;99.90;;;;;;4956937;28;20171;-81
2023/08/03 02:51:32;;;;;;;3.15;2.15;;;18.10;99.90;;;;;;4957092;28;20751;-81
2023/08/03 02:53:58;;;;;;;4.80;1.90;;;18.10;99.90;;;;;;4956728;28;20173;-80
2023/08/03 02:56:23;;;;;;;2.40;1.50;;;18.10;99.90;;;;;;4957163;28;20185;-82
2023/08/03 02:58:49;;;;;;;2.95;1.75;;;18.00;99.90;;;;;;4973746;28;20249;-82
2023/08/03 03:01:16;;;;;;;2.63;2.08;;;18.00;99.90;;;;;;4956913;28;20191;-81
2023/08/03 03:03:43;;;;;;;2.13;1.70;;;18.00;99.90;;;;;;4957337;28;20213;-81
2023/08/03 03:06:08;;;;;;;4.18;2.28;;;18.10;99.90;;;;;;4973963;28;20186;-82
2023/08/03 03:08:34;;;;;;;2.67;1.75;;;18.10;99.90;;;;;;4974027;28;20244;-81
2023/08/03 03:11:00;;;;;;;2.38;1.70;;;18.00;99.90;;;;;;4974267;28;20705;-82
2023/08/03 03:13:25;;;;;;;4.38;1.95;;;18.10;99.90;;;;;;4941008;28;20216;-80
2023/08/03 03:15:51;;;;;;;2.42;1.60;;;18.10;99.90;;;;;;4974012;28;20189;-81
2023/08/03 03:18:17;;;;;;;2.55;1.95;;;18.10;99.90;;;;;;4974445;28;20175;-81
2023/08/03 03:20:42;;;;;;;2.92;2.00;;;18.10;99.90;;;;;;4956865;28;20191;-81
2023/08/03 03:23:08;;;;;;;2.58;1.80;;;18.10;99.90;;;;;;4973461;28;20182;-81
2023/08/03 03:25:34;;;;;;;5.15;1.83;;;18.20;99.90;;;;;;4957296;28;20647;-81
2023/08/03 03:28:04;;;;;;;1.50;1.30;;;18.20;99.90;;;;;;4944369;28;20261;-81
2023/08/03 03:30:33;;;;;;;3.20;1.95;;;18.20;99.90;;;;;;4961391;28;20198;-81
2023/08/03 03:32:59;;;;;;;3.03;1.65;;;18.30;99.90;;;;;;4973949;28;20183;-83
2023/08/03 03:35:25;;;;;;;4.50;1.95;;;18.20;99.90;;;;;;4973233;28;20675;-81
2023/08/03 03:37:51;;;;;;;1.77;1.48;;;18.30;99.90;;;;;;4986631;28;20186;-86
2023/08/03 03:40:16;;;;;;;3.08;1.70;;;18.20;99.90;;;;;;4943697;28;20226;-82
2023/08/03 03:42:42;;;;;;;2.10;1.33;;;18.10;99.90;;;;;;4974245;28;20195;-83
2023/08/03 03:45:08;;;;;;;2.67;1.73;;;18.10;99.90;;;;;;4975582;28;20211;-82
2023/08/03 03:47:34;;;;;;;2.80;2.15;;;18.20;99.90;;;;;;4975935;28;20191;-82
2023/08/03 03:50:00;;;;;;;2.20;1.55;;;18.30;99.90;;;;;;4955115;29;20644;-81
2023/08/03 03:52:25;;;;;;;3.92;2.15;;;18.40;99.90;;;;;;4968733;28;20257;-81
2023/08/03 03:54:51;;;;;;;2.35;1.60;;;18.40;99.90;;;;;;4974619;28;20187;-83
2023/08/03 03:57:16;;;;;;;3.80;1.70;;;18.30;99.90;;;;;;4958525;28;20249;-81
2023/08/03 03:59:42;;;;;;;2.80;1.65;;;18.30;99.90;;;;;;4976055;28;20190;-82
2023/08/03 04:02:08;;;;;;;2.28;1.50;;;18.30;99.90;;;;;;4955165;28;20531;-81
2023/08/03 04:04:34;;;;;;;2.58;1.77;;;18.30;99.90;;;;;;4971829;28;20535;-83
2023/08/03 04:06:59;;;;;;;2.28;1.33;;;18.50;99.90;;;;;;4974406;28;20543;-82
2023/08/03 04:09:25;;;;;;;3.58;1.80;;;18.60;99.90;;;;;;4973965;28;20213;-81
2023/08/03 04:11:51;;;;;;;3.28;1.92;;;18.60;99.90;;;;;;4974236;28;20241;-82
2023/08/03 04:14:16;;;;;;;2.63;1.80;;;18.50;99.90;;;;;;4975278;28;20237;-82
2023/08/03 04:16:42;;;;;;;2.30;1.40;;;18.50;99.90;;;;;;4973219;28;20191;-81
2023/08/03 04:19:08;;;;;;;2.85;1.65;;;18.50;99.90;;;;;;4976593;28;20191;-81
2023/08/03 04:21:33;;;;;;;6.13;1.88;;;18.40;99.90;;;;;;4965955;28;20201;-81
2023/08/03 04:23:59;;;;;;;1.88;1.60;;;18.40;99.90;;;;;;4973767;28;20241;-81
2023/08/03 04:26:25;;;;;;;3.53;1.90;;;18.50;99.90;;;;;;4975136;28;20284;-82
2023/08/03 04:28:50;;;;;;;1.70;1.50;;;18.60;99.90;;;;;;4957973;28;20187;-82
2023/08/03 04:31:16;;;;;;;2.25;1.52;;;18.70;99.90;;;;;;4966605;28;20210;-82
2023/08/03 04:33:42;;;;;;;2.63;1.63;;;18.90;99.90;;;;;;4966198;28;20194;-82
2023/08/03 04:36:08;;;;;;;2.42;1.63;;;18.80;99.90;;;;;;4971647;28;20197;-81
2023/08/03 04:38:33;;;;;;;2.60;2.08;;;18.80;99.90;;;;;;4972666;28;20197;-80
2023/08/03 04:41:01;;;;;;;5.68;1.70;;;18.80;99.90;;;;;;4956391;28;20579;-82
2023/08/03 04:43:27;;;;;;;6.55;2.03;;;18.90;99.90;;;;;;4967584;28;20251;-83
2023/08/03 04:45:53;;;;;;;1.98;1.55;;;19.00;99.90;;;;;;4970732;28;20194;-85
2023/08/03 04:48:19;;;;;;;1.60;1.50;;;19.00;99.90;;;;;;4972873;28;20722;-82
2023/08/03 04:50:44;;;;;;;3.30;1.67;;;19.10;99.90;;;;;;4974604;28;20191;-83
2023/08/03 04:53:10;;;;;;;1.92;1.38;;;19.10;99.90;;;;;;4972875;28;20242;-82
2023/08/03 04:55:36;;;;;;;4.07;1.42;;;19.20;99.90;;;;;;4973344;28;20623;-83
2023/08/03 04:58:02;;;;;;;2.17;1.60;;;19.20;99.90;;;;;;4956605;28;20313;-82
2023/08/03 05:00:28;;;;;;;2.92;2.15;;;19.20;99.90;;;;;;4974362;28;20265;-82
2023/08/03 05:02:54;;;;;;;3.03;1.95;;;19.20;99.90;;;;;;4948984;28;20299;-83
2023/08/03 05:05:19;;;;;;;2.70;1.70;;;19.20;99.90;;;;;;4954131;29;20439;-82
2023/08/03 05:07:45;;;;;;;2.22;1.60;;;19.30;99.90;;;;;;4970506;28;20187;-83
2023/08/03 05:10:10;;;;;;;3.35;1.58;;;19.30;99.90;;;;;;4955061;29;20211;-81
2023/08/03 05:12:38;;;;;;;2.40;1.80;;;19.70;99.90;;;;;;4955320;29;20175;-82
2023/08/03 05:15:04;;;;;;;4.32;1.50;;;19.50;99.90;;;;;;4954870;29;20194;-81
2023/08/03 05:17:30;;;;;;;2.45;1.20;;;19.70;99.90;;;;;;4955637;29;20206;-82
2023/08/03 05:19:56;;;;;;;3.83;1.30;;;19.90;99.90;;;;;;4971422;28;20219;-81
2023/08/03 05:22:21;;;;;;;5.70;2.00;;;20.00;99.90;;;;;;4956324;29;20217;-80
2023/08/03 05:24:47;;;;;;;2.38;1.70;;;20.10;99.90;;;;;;4971302;28;20207;-80
2023/08/03 05:27:13;;;;;;;3.40;1.63;;;20.20;99.90;;;;;;4954770;29;20697;-81
2023/08/03 05:29:43;;;;;;;3.22;1.00;;;20.40;99.90;;;;;;4956417;29;20183;-81
2023/08/03 05:32:08;;;;;;;3.30;1.60;;;20.60;99.90;;;;;;4970889;28;20197;-82
2023/08/03 05:34:34;;;;;;;2.22;1.27;;;20.80;99.90;;;;;;4956409;29;20636;-81
2023/08/03 05:36:59;;;;;;;4.20;1.58;;;20.80;99.90;;;;;;4956337;29;20691;-81
2023/08/03 05:39:26;;;;;;;2.45;1.30;;;20.90;99.90;;;;;;4970877;28;20239;-81
2023/08/03 05:41:52;;;;;;;3.08;1.80;;;20.80;99.90;;;;;;4956146;29;20202;-81
2023/08/03 05:44:17;;;;;;;4.75;1.80;;;20.70;99.90;;;;;;4954628;29;20238;-81
2023/08/03 05:46:44;;;;;;;1.98;1.70;;;20.70;99.90;;;;;;4955852;29;20552;-80
2023/08/03 05:49:12;;;;;;;2.03;1.40;;;20.70;99.90;;;;;;4953673;28;20712;-81
2023/08/03 05:51:39;;;;;;;2.55;1.63;;;20.80;99.90;;;;;;4956214;29;20242;-81
2023/08/03 05:54:05;;;;;;;1.88;1.35;;;20.80;99.90;;;;;;4956261;29;20167;-81
2023/08/03 05:56:35;;;;;;;2.50;1.60;;;20.90;99.90;;;;;;4955724;29;20195;-81
2023/08/03 05:59:02;;;;;;;5.70;1.50;;;21.00;99.90;;;;;;4955994;29;20175;-81
2023/08/03 06:01:28;;;;;;;2.25;1.65;;;21.20;99.90;;;;;;4955499;29;20640;-81
2023/08/03 06:03:54;;;;;;;2.40;1.55;;;21.50;99.90;;;;;;4955750;29;20203;-82
2023/08/03 06:06:21;;;;;;;1.83;1.35;;;21.80;99.90;;;;;;4957787;28;20281;-81
2023/08/03 06:08:52;;;;;;;1.70;1.38;;;22.10;99.90;;;;;;4955301;28;20178;-83
2023/08/03 06:11:20;;;;;;;8.93;1.40;;;22.20;99.90;;;;;;4952286;28;20194;-81
2023/08/03 06:13:47;;;;;;;3.00;1.55;;;22.30;99.90;;;;;;4958255;28;20186;-82
2023/08/03 06:16:13;;;;;;;1.30;1.20;;;22.30;99.90;;;;;;4963537;28;20178;-82
2023/08/03 06:19:00;;;;;;;5.03;1.38;;;22.30;99.90;;;;;;4960162;28;20208;-82
2023/08/03 06:21:27;;;;;;;2.03;1.38;;;22.40;99.90;;;;;;4955902;28;20190;-82
2023/08/03 06:23:55;;;;;;;1.60;1.20;;;22.50;99.90;;;;;;4951181;28;20207;-82
2023/08/03 06:26:21;;;;;;;4.07;1.40;;;22.60;99.90;;;;;;4948599;28;20632;-82
2023/08/03 06:28:49;;;;;;;3.55;1.85;;;22.60;99.90;;;;;;4968869;28;20270;-83
2023/08/03 06:31:17;;;;;;;1.45;1.25;;;22.60;99.90;;;;;;4974006;28;20206;-83
2023/08/03 06:33:45;;;;;;;1.73;1.25;;;22.50;99.90;;;;;;4974242;28;20174;-82
2023/08/03 06:36:20;;;;;;;2.75;1.40;;;22.50;99.90;;;;;;4974201;28;20175;-81
2023/08/03 06:38:46;;;;;;;5.05;1.80;;;22.50;99.90;;;;;;4968316;28;20233;-82
2023/08/03 06:41:12;;;;;;;5.07;1.40;;;22.40;99.90;;;;;;4960772;28;20700;-85
2023/08/03 06:43:38;;;;;;;2.63;1.20;;;22.40;99.90;;;;;;4964265;28;20314;-83
2023/08/03 06:46:05;;;;;;;1.67;1.58;;;22.40;99.90;;;;;;4960545;28;20190;-82
2023/08/03 06:48:32;;;;;;;2.33;1.60;;;22.40;99.90;;;;;;4957383;28;20187;-85
2023/08/03 06:50:58;;;;;;;2.08;1.25;;;22.40;99.90;;;;;;4962606;28;20269;-83
2023/08/03 06:53:24;;;;;;;2.17;1.42;;;22.40;99.90;;;;;;4962022;28;20597;-83
2023/08/03 06:55:50;;;;;;;2.08;1.30;;;22.40;99.90;;;;;;4959887;28;20190;-82
2023/08/03 06:58:19;;;;;;;4.97;1.20;;;22.40;99.90;;;;;;4963060;28;20715;-83
2023/08/03 07:00:45;;;;;;;1.85;1.42;;;22.30;99.90;;;;;;4965701;28;20182;-83
2023/08/03 07:03:11;;;;;;;5.47;1.10;;;22.30;99.90;;;;;;4965293;28;20193;-83
2023/08/03 07:05:38;;;;;;;2.47;1.38;;;22.30;99.90;;;;;;4965354;28;20219;-83
2023/08/03 07:08:04;;;;;;;6.03;1.58;;;22.40;99.90;;;;;;4965791;28;20540;-83
2023/08/03 07:10:30;;;;;;;3.13;1.45;;;22.40;99.90;;;;;;4976790;28;20279;-82
2023/08/03 07:12:56;;;;;;;1.33;1.08;;;22.50;99.90;;;;;;4973462;28;20185;-83
2023/08/03 07:15:22;;;;;;;1.58;1.20;;;22.70;99.90;;;;;;4966955;28;20560;-82
2023/08/03 07:17:47;;;;;;;1.48;1.30;;;22.80;99.90;;;;;;4958072;28;20662;-82
2023/08/03 07:20:13;;;;;;;1.45;1.20;;;22.90;99.90;;;;;;4957241;29;20554;-82
2023/08/03 07:22:39;;;;;;;3.90;1.50;;;23.00;99.90;;;;;;4960093;28;20202;-83
2023/08/03 07:25:05;;;;;;;2.63;1.63;;;23.00;99.90;;;;;;4966588;28;20242;-82
2023/08/03 07:27:32;;;;;;;1.77;1.27;;;23.00;99.90;;;;;;4964105;28;20266;-83
2023/08/03 07:29:58;;;;;;;1.77;1.50;;;23.00;99.90;;;;;;4962716;28;20187;-83
2023/08/03 07:32:24;;;;;;;1.73;1.35;;;23.00;99.90;;;;;;4968807;28;20249;-83
2023/08/03 07:34:49;;;;;;;1.42;1.30;;;23.00;99.90;;;;;;4970452;28;20187;-82
2023/08/03 07:37:15;;;;;;;3.30;1.35;;;23.20;99.90;;;;;;4964431;28;20175;-82
2023/08/03 07:39:41;;;;;;;2.30;0.90;;;23.30;99.90;;;;;;4957232;28;20637;-83
2023/08/03 07:42:06;;;;;;;3.47;1.80;;;23.30;99.90;;;;;;4963603;28;20528;-84
2023/08/03 07:44:32;;;;;;;4.95;1.23;;;23.40;99.90;;;;;;4967603;28;20213;-84
2023/08/03 07:46:58;;;;;;;2.25;1.35;;;23.50;99.90;;;;;;4968383;28;20175;-83
2023/08/03 07:49:23;;;;;;;1.55;1.27;;;23.60;99.90;;;;;;4939120;28;20681;-84
2023/08/03 07:51:49;;;;;;;1.50;1.30;;;23.70;99.90;;;;;;4969495;28;20317;-83
2023/08/03 07:54:15;;;;;;;3.03;1.40;;;23.60;99.90;;;;;;4968629;28;20632;-83
2023/08/03 07:56:42;;;;;;;2.70;1.50;;;23.50;99.90;;;;;;4975313;28;20183;-83
2023/08/03 07:59:10;;;;;;;2.17;1.30;;;23.50;99.90;;;;;;4975937;28;20202;-83
2023/08/03 08:01:36;;;;;;;1.88;1.30;;;23.40;99.90;;;;;;4975656;28;20228;-83
2023/08/03 08:04:02;;;;;;;4.28;1.55;;;23.40;99.90;;;;;;4975780;28;20215;-83
2023/08/03 08:06:28;;;;;;;5.57;1.67;;;23.40;99.90;;;;;;4955665;28;20182;-83
2023/08/03 08:08:54;;;;;;;1.45;1.25;;;23.30;99.90;;;;;;4950885;29;20186;-83
2023/08/03 08:11:20;;;;;;;5.70;1.35;;;23.30;99.90;;;;;;4957419;28;20190;-83
2023/08/03 08:13:46;;;;;;;2.28;1.58;;;23.20;99.90;;;;;;4958419;28;20214;-83
2023/08/03 08:16:13;;;;;;;2.20;1.50;;;23.20;99.90;;;;;;4977147;28;20193;-83
2023/08/03 08:18:39;;;;;;;2.35;1.40;;;23.20;99.90;;;;;;4977011;28;20174;-84
2023/08/03 08:21:14;;;;;;;1.85;1.45;;;23.10;99.90;;;;;;4976931;28;20171;-82
2023/08/03 08:23:40;;;;;;;6.75;1.30;;;23.10;99.90;;;;;;4977950;28;20194;-84
2023/08/03 08:26:13;;;;;;;1.90;1.30;;;23.10;99.90;;;;;;4975739;28;20194;-83
2023/08/03 08:28:40;;;;;;;3.70;1.30;;;23.10;99.90;;;;;;4975602;28;20178;-83
2023/08/03 08:31:06;;;;;;;3.10;1.40;;;23.20;99.90;;;;;;4959705;28;20305;-83
2023/08/03 08:33:32;;;;;;;2.85;1.38;;;23.20;99.90;;;;;;4974800;28;20258;-84
2023/08/03 08:35:57;;;;;;;2.25;1.00;;;23.20;99.90;;;;;;4975757;28;20182;-83
2023/08/03 08:38:23;;;;;;;3.20;1.20;;;23.20;99.90;;;;;;4975306;28;20183;-83
2023/08/03 08:40:49;;;;;;;2.22;1.27;;;23.30;99.90;;;;;;4959175;28;20191;-82
2023/08/03 08:43:17;;;;;;;4.43;2.03;;;23.30;99.90;;;;;;4972105;28;20182;-83
2023/08/03 08:45:43;;;;;;;2.40;1.10;;;23.30;99.90;;;;;;4959006;28;20229;-83
2023/08/03 08:48:08;;;;;;;2.28;1.35;;;23.40;99.90;;;;;;4971626;28;20202;-83
2023/08/03 08:50:34;;;;;;;5.88;1.52;;;23.50;99.90;;;;;;4976119;28;20587;-84
2023/08/03 08:52:59;;;;;;;3.45;1.13;;;23.40;99.90;;;;;;4975043;28;20773;-82
2023/08/03 08:55:27;;;;;;;3.15;1.08;;;23.30;99.90;;;;;;4973736;28;20190;-82
2023/08/03 08:57:54;;;;;;;2.50;1.10;;;23.20;99.90;;;;;;4976338;28;20174;-82
2023/08/03 09:00:20;;;;;;;1.58;0.80;;;23.10;99.90;;;;;;4976140;28;20206;-83
2023/08/03 09:02:47;;;;;;;1.75;1.17;;;23.00;99.90;;;;;;4975402;28;20189;-83
2023/08/03 09:05:24;;;;;;;2.47;1.20;;;22.90;99.90;;;;;;4975996;28;20297;-84
2023/08/03 09:08:03;;;;;;;0.73;0.70;;;22.90;99.90;;;;;;4975652;28;20221;-83
2023/08/03 09:10:30;;;;;;;2.03;1.08;;;22.80;99.90;;;;;;4974199;28;20210;-83
2023/08/03 09:12:58;;;;;;;1.45;1.02;;;22.70;99.90;;;;;;4972000;28;20191;-83
2023/08/03 09:15:42;;;;;;;1.10;1.00;;;22.70;99.90;;;;;;4966220;28;20178;-84
2023/08/03 09:18:08;;;;;;;1.90;0.95;;;22.50;99.90;;;;;;4964230;28;20254;-83
2023/08/03 09:20:34;;;;;;;1.10;0.82;;;22.40;99.90;;;;;;4963730;28;20315;-84
2023/08/03 09:23:01;;;;;;;1.55;1.33;;;22.50;99.90;;;;;;4959569;28;20265;-84
2023/08/03 09:25:27;;;;;;;1.42;1.08;;;22.50;99.90;;;;;;4965342;28;20202;-84
2023/08/03 09:27:55;;;;;;;1.42;1.10;;;22.50;99.90;;;;;;4958647;28;20210;-83
2023/08/03 09:30:24;;;;;;;1.40;1.10;;;22.50;99.90;;;;;;4956674;28;20180;-84
2023/08/03 09:32:50;;;;;;;3.45;1.40;;;22.60;99.90;;;;;;4944598;28;20191;-85
2023/08/03 09:35:23;;;;;;;1.55;1.30;;;22.60;99.90;;;;;;4964098;28;20198;-85
2023/08/03 09:37:51;;;;;;;1.10;0.80;;;22.80;99.90;;;;;;4968003;28;20179;-83
2023/08/03 09:40:19;;;;;;;0.88;0.82;;;23.00;99.20;;;;;;4940981;28;20194;-83
2023/08/03 09:42:47;;;;;;;3.50;1.20;;;23.00;99.50;;;;;;4955636;28;20211;-83
2023/08/03 09:45:13;;;;;;;2.92;1.33;;;23.10;97.10;;;;;;4973263;28;20198;-84
2023/08/03 09:47:40;;;;;;;1.60;1.05;;;23.20;96.90;;;;;;4962684;28;20187;-84
2023/08/03 09:50:07;;;;;;;3.80;1.27;;;23.20;95.90;;;;;;4964495;28;20179;-82
2023/08/03 09:52:40;;;;;;;1.65;0.90;;;23.10;95.70;;;;;;4962687;28;20766;-85
2023/08/03 09:55:20;;;;;;;1.90;1.30;;;23.00;95.70;;;;;;4962803;28;20172;-84
2023/08/03 09:57:59;;;;;;;3.03;1.35;;;23.20;96.70;;;;;;4964313;28;20683;-84
2023/08/03 10:00:25;;;;;;;1.52;1.00;;;23.50;96.50;;;;;;4965769;28;20266;-83
2023/08/03 10:02:59;;;;;;;1.23;0.80;;;23.40;94.70;;;;;;4965639;28;20678;-83
2023/08/03 10:05:26;;;;;;;1.80;1.15;;;23.20;94.80;;;;;;4957283;28;20258;-83
2023/08/03 10:08:03;;;;;;;1.52;0.93;;;22.80;95.40;;;;;;4954930;29;20645;-83
2023/08/03 10:10:33;;;;;;;1.63;1.08;;;22.60;96.30;;;;;;4955434;29;20159;-83
2023/08/03 10:13:02;;;;;;;1.75;1.23;;;22.40;97.10;;;;;;4954813;29;20556;-83
2023/08/03 10:15:28;;;;;;;2.03;1.20;;;22.30;97.60;;;;;;4922185;29;20190;-84
2023/08/03 10:17:55;;;;;;;3.67;0.90;;;22.10;99.00;;;;;;4955103;29;20179;-84
2023/08/03 10:20:21;;;;;;;1.00;0.80;;;22.00;99.90;;;;;;4922221;29;20636;-82
2023/08/03 10:23:07;;;;;;;1.98;1.00;;;21.70;99.90;;;;;;4955048;29;20641;-83
2023/08/03 10:25:33;;;;;;;5.68;1.00;;;21.70;99.90;;;;;;4937836;29;20236;-81
2023/08/03 10:28:14;;;;;;;6.65;1.30;;;21.60;99.90;;;;;;4954857;29;20551;-83
2023/08/03 10:31:03;;;;;;;2.25;1.30;;;21.50;99.90;;;;;;4921945;29;20187;-83
2023/08/03 10:33:50;;;;;;;2.25;1.02;;;21.40;99.90;;;;;;4937755;29;20183;-83
2023/08/03 10:36:28;;;;;;;2.47;0.95;;;21.30;99.90;;;;;;4947493;28;20214;-83
2023/08/03 10:38:57;;;;;;;3.75;1.33;;;21.20;99.90;;;;;;4962209;28;20182;-83
2023/08/03 10:41:24;;;;;;;1.30;1.02;;;21.10;99.90;;;;;;4961528;28;20186;-82
2023/08/03 10:44:05;;;;;;;2.63;1.02;;;21.00;99.90;;;;;;4959187;28;20684;-82
2023/08/03 10:46:44;;;;;;;1.80;0.98;;;20.80;99.90;;;;;;4953584;29;20257;-83
2023/08/03 10:49:28;;;;;;;13.18;1.35;;;20.80;99.90;;;;;;4937053;29;20591;-83
2023/08/03 10:52:13;;;;;;;3.47;0.98;;;20.80;99.90;;;;;;4953031;28;20242;-82
2023/08/03 10:54:39;;;;;;;3.22;1.25;;;20.90;99.90;;;;;;4954820;29;20173;-82
2023/08/03 10:57:10;;;;;;;1.85;0.93;;;21.10;99.90;;;;;;4953227;29;20183;-83
2023/08/03 10:59:37;;;;;;;3.55;1.25;;;21.30;99.90;;;;;;4954628;28;20183;-83
2023/08/03 11:02:20;;;;;;;1.05;0.98;;;21.50;99.90;;;;;;4954288;29;20187;-82
2023/08/03 11:04:47;;;;;;;1.40;1.00;;;21.60;99.90;;;;;;4953698;29;20198;-83
2023/08/03 11:07:16;;;;;;;2.05;1.00;;;21.70;99.90;;;;;;4954495;29;20246;-81
2023/08/03 11:09:48;;;;;;;1.40;0.95;;;21.80;99.90;;;;;;4954818;29;20175;-84
2023/08/03 11:12:16;;;;;;;1.52;1.00;;;21.80;99.20;;;;;;4954962;29;20243;-82
2023/08/03 11:14:47;;;;;;;2.42;1.00;;;21.80;98.80;;;;;;4954687;29;20179;-84
2023/08/03 11:17:14;;;;;;;4.57;1.63;;;21.70;98.60;;;;;;4954541;29;20171;-82
2023/08/03 11:19:40;;;;;;;2.00;1.30;;;21.80;99.80;;;;;;4954592;29;20182;-82
2023/08/03 11:22:08;;;;;;;1.55;0.95;;;21.70;98.60;;;;;;4954498;28;20191;-83
2023/08/03 11:24:34;;;;;;;1.30;1.13;;;21.70;96.50;;;;;;4961188;28;20234;-81
2023/08/03 11:27:01;;;;;;;2.35;1.25;;;21.60;96.50;;;;;;4962028;28;20191;-82
2023/08/03 11:29:27;;;;;;;1.48;0.95;;;21.60;96.60;;;;;;4955454;28;20266;-81
2023/08/03 11:31:52;;;;;;;1.20;1.10;;;21.60;96.70;;;;;;4954051;29;20270;-82
2023/08/03 11:34:18;;;;;;;0.98;0.85;;;21.60;96.30;;;;;;4957580;28;20198;-82
2023/08/03 11:36:48;;;;;;;2.13;0.95;;;21.40;96.60;;;;;;4964879;28;20642;-81
2023/08/03 11:39:14;;;;;;;2.97;1.27;;;21.50;97.10;;;;;;4961649;28;20176;-82
2023/08/03 11:41:41;;;;;;;2.47;1.10;;;21.50;97.00;;;;;;4953931;28;20198;-83
2023/08/03 11:44:07;;;;;;;1.33;0.80;;;21.40;97.90;;;;;;4943953;28;20257;-84
2023/08/03 11:46:33;;;;;;;2.00;1.10;;;21.40;97.90;;;;;;4955088;28;20186;-84
2023/08/03 11:49:00;;;;;;;1.27;0.73;;;21.40;98.50;;;;;;4942813;28;20174;-84
2023/08/03 11:51:47;;;;;;;4.22;1.23;;;21.30;96.60;;;;;;4946617;28;20250;-84
2023/08/03 11:54:24;;;;;;;5.55;1.00;;;21.10;97.70;;;;;;4964274;28;20602;-82
2023/08/03 11:56:50;;;;;;;1.48;0.90;;;21.10;98.40;;;;;;4945893;28;20183;-82
2023/08/03 11:59:15;;;;;;;1.45;1.00;;;21.00;98.50;;;;;;4973961;28;20193;-82
2023/08/03 12:01:46;;;;;;;5.40;1.30;;;20.80;98.50;;;;;;4971738;28;20274;-82
2023/08/03 12:04:12;;;;;;;1.42;0.82;;;20.70;98.90;;;;;;4966266;28;20301;-81
2023/08/03 12:06:46;;;;;;;1.65;1.05;;;20.60;99.10;;;;;;4956417;28;20190;-82
2023/08/03 12:09:24;;;;;;;1.95;0.85;;;20.50;99.90;;;;;;4944891;28;20183;-82
2023/08/03 12:11:50;;;;;;;8.75;1.45;;;20.40;99.90;;;;;;4959487;28;20171;-82
2023/08/03 12:14:19;;;;;;;1.20;0.93;;;20.30;99.90;;;;;;4965439;28;20187;-83
2023/08/03 12:16:46;;;;;;;7.18;1.52;;;20.30;99.90;;;;;;4969424;28;20186;-83
2023/08/03 12:19:11;;;;;;;4.28;1.60;;;20.30;99.90;;;;;;4967466;28;20643;-82
2023/08/03 12:21:38;;;;;;;2.63;1.30;;;20.20;99.90;;;;;;4967705;28;20194;-82
2023/08/03 12:24:05;;;;;;;2.83;1.55;;;20.10;99.90;;;;;;4963364;28;20655;-83
2023/08/03 12:26:31;;;;;;;2.92;1.70;;;20.10;99.90;;;;;;4971356;28;20179;-85
2023/08/03 12:28:57;;;;;;;2.70;1.27;;;20.10;99.90;;;;;;4970159;28;20248;-82
2023/08/03 12:31:23;;;;;;;1.77;1.40;;;20.10;99.90;;;;;;4959644;28;20635;-83
2023/08/03 12:33:49;;;;;;;3.42;2.10;;;20.00;99.90;;;;;;4969568;28;20281;-83
2023/08/03 12:36:15;;;;;;;5.55;1.52;;;20.00;99.90;;;;;;4976004;28;20178;-82
2023/08/03 12:38:41;;;;;;;5.57;1.15;;;20.00;99.90;;;;;;4972200;28;20522;-84
2023/08/03 12:41:07;;;;;;;6.57;1.35;;;20.00;99.90;;;;;;4953689;28;20274;-83
2023/08/03 12:43:32;;;;;;;3.88;1.48;;;19.80;99.90;;;;;;4967381;28;20191;-83
2023/08/03 12:45:59;;;;;;;1.77;1.15;;;19.80;99.90;;;;;;4967379;28;20214;-83
2023/08/03 12:48:24;;;;;;;2.55;1.73;;;19.80;99.90;;;;;;4956793;29;20198;-82